Time;durP1;ratioP1;P1;durP2;ratioP2;P2;SDS_P1;SDS_P2;PMS_P1;PMS_P2;Temp;Humidity;BMP_temperature;BMP_pressure;BME280_temperature;BME280_humidity;BME280_pressure;Samples;Min_cycle;Max_cycle;Signal;HPM_P1;HPM_P2
2022/08/27 00:00:30;;;;;;;38.73;20.97;;;19.90;93.40;;;;;;5040288;28;21042;-70
2022/08/27 00:02:56;;;;;;;39.50;21.87;;;19.90;93.40;;;;;;5040045;28;20416;-71
2022/08/27 00:05:22;;;;;;;49.80;24.70;;;20.00;93.20;;;;;;5043787;28;20441;-71
2022/08/27 00:07:48;;;;;;;37.33;22.37;;;19.90;93.10;;;;;;5043451;28;20432;-71
2022/08/27 00:10:20;;;;;;;53.00;26.77;;;20.00;93.10;;;;;;5039184;28;20460;-71
2022/08/27 00:12:47;;;;;;;44.73;25.50;;;20.00;93.10;;;;;;5039135;28;20299;-71
2022/08/27 00:15:14;;;;;;;40.40;21.43;;;20.00;93.10;;;;;;5047110;28;20426;-71
2022/08/27 00:17:40;;;;;;;41.93;23.80;;;20.00;93.20;;;;;;5043601;28;20432;-71
2022/08/27 00:20:07;;;;;;;38.00;22.03;;;20.00;93.20;;;;;;5035067;28;20486;-70
2022/08/27 00:22:33;;;;;;;49.50;24.27;;;20.00;93.10;;;;;;5038251;28;20454;-70
2022/08/27 00:24:59;;;;;;;40.40;22.40;;;20.10;92.90;;;;;;5036565;28;20504;-71
2022/08/27 00:27:25;;;;;;;49.00;25.57;;;20.10;92.80;;;;;;5034135;28;20433;-71
2022/08/27 00:29:51;;;;;;;48.97;27.00;;;20.10;92.80;;;;;;5039845;28;20495;-71
2022/08/27 00:32:16;;;;;;;43.43;23.67;;;20.10;92.90;;;;;;5049006;28;20207;-71
2022/08/27 00:34:43;;;;;;;38.33;22.37;;;20.10;92.70;;;;;;5048013;28;20198;-72
2022/08/27 00:37:09;;;;;;;40.30;22.20;;;20.10;92.60;;;;;;5038454;28;20216;-71
2022/08/27 00:39:35;;;;;;;42.27;23.80;;;20.20;92.60;;;;;;5041796;28;20511;-72
2022/08/27 00:42:02;;;;;;;37.67;22.10;;;20.20;92.40;;;;;;5036427;28;20281;-71
2022/08/27 00:44:28;;;;;;;34.37;19.70;;;20.20;92.70;;;;;;5044199;28;20428;-72
2022/08/27 00:46:59;;;;;;;41.77;22.17;;;20.10;93.00;;;;;;5039350;28;20936;-71
2022/08/27 00:49:43;;;;;;;34.73;19.63;;;20.10;93.10;;;;;;5042533;28;20192;-71
2022/08/27 00:52:32;;;;;;;39.87;24.37;;;20.00;93.30;;;;;;5044573;28;20874;-71
2022/08/27 00:55:17;;;;;;;39.50;22.73;;;20.00;93.40;;;;;;5043097;28;20425;-71
2022/08/27 00:57:44;;;;;;;41.27;23.50;;;20.00;93.40;;;;;;5042678;28;20484;-71
2022/08/27 01:00:17;;;;;;;43.07;21.17;;;20.00;93.40;;;;;;5040275;28;20460;-71
2022/08/27 01:02:45;;;;;;;39.20;21.50;;;20.00;93.80;;;;;;5043050;28;20470;-72
2022/08/27 01:05:19;;;;;;;41.70;22.57;;;20.00;93.50;;;;;;5037224;28;20427;-71
2022/08/27 01:07:49;;;;;;;45.77;24.33;;;20.00;93.40;;;;;;5041468;28;20428;-71
2022/08/27 01:10:18;;;;;;;41.07;22.97;;;20.10;93.20;;;;;;5034744;28;20970;-72
2022/08/27 01:12:45;;;;;;;50.20;25.67;;;20.10;93.40;;;;;;5039855;28;20482;-71
2022/08/27 01:15:13;;;;;;;53.30;25.33;;;20.00;93.30;;;;;;5039320;28;20780;-71
2022/08/27 01:17:41;;;;;;;56.77;28.50;;;20.00;93.40;;;;;;5040339;28;20505;-72
2022/08/27 01:20:15;;;;;;;52.83;25.70;;;19.90;93.70;;;;;;5040897;28;20466;-71
2022/08/27 01:23:05;;;;;;;45.40;24.60;;;19.80;94.10;;;;;;5041954;28;20776;-70
2022/08/27 01:25:31;;;;;;;51.83;27.50;;;19.80;94.50;;;;;;5042965;28;20423;-71
2022/08/27 01:27:59;;;;;;;52.60;28.43;;;19.70;94.50;;;;;;5040819;28;20473;-71
2022/08/27 01:30:26;;;;;;;50.27;27.37;;;19.70;94.70;;;;;;5037509;28;20553;-71
2022/08/27 01:32:52;;;;;;;50.33;27.90;;;19.70;95.00;;;;;;5039854;28;20475;-72
2022/08/27 01:35:19;;;;;;;47.83;25.80;;;19.60;95.10;;;;;;5042183;28;20419;-72
2022/08/27 01:37:48;;;;;;;44.97;25.07;;;19.70;95.20;;;;;;5041957;28;20921;-71
2022/08/27 01:40:14;;;;;;;47.20;26.67;;;19.70;95.30;;;;;;5041540;28;20466;-71
2022/08/27 01:42:44;;;;;;;48.20;26.70;;;19.80;95.50;;;;;;5041097;28;20427;-71
2022/08/27 01:45:19;;;;;;;49.20;25.50;;;19.80;95.40;;;;;;5043328;28;20946;-71
2022/08/27 01:47:46;;;;;;;47.57;26.17;;;19.90;95.50;;;;;;5037821;28;20428;-72
2022/08/27 01:50:18;;;;;;;46.60;25.33;;;19.90;95.40;;;;;;5042885;28;20459;-69
2022/08/27 01:52:44;;;;;;;45.20;24.33;;;20.00;95.30;;;;;;5032955;28;20843;-69
2022/08/27 01:55:12;;;;;;;43.90;25.27;;;20.00;95.00;;;;;;5041740;28;20956;-69
2022/08/27 01:57:38;;;;;;;48.50;26.37;;;20.00;95.00;;;;;;5043301;28;20443;-70
2022/08/27 02:00:08;;;;;;;47.33;25.07;;;19.90;94.90;;;;;;5042545;28;20535;-70
2022/08/27 02:02:33;;;;;;;43.17;24.27;;;19.90;95.00;;;;;;5042296;28;20510;-71
2022/08/27 02:04:59;;;;;;;48.87;26.47;;;19.90;95.00;;;;;;5044133;28;20873;-73
2022/08/27 02:07:25;;;;;;;47.30;27.43;;;19.90;95.10;;;;;;5042768;28;20184;-70
2022/08/27 02:09:50;;;;;;;41.10;24.13;;;19.90;95.30;;;;;;5043491;28;20281;-69
2022/08/27 02:12:16;;;;;;;45.60;24.80;;;19.90;95.20;;;;;;5048032;28;20205;-68
2022/08/27 02:14:42;;;;;;;53.70;27.10;;;19.90;95.20;;;;;;5045755;28;20184;-69
2022/08/27 02:17:07;;;;;;;53.27;27.30;;;19.80;95.00;;;;;;5041927;28;20192;-70
2022/08/27 02:19:33;;;;;;;49.90;26.40;;;19.80;95.10;;;;;;5043065;28;20211;-71
2022/08/27 02:21:59;;;;;;;53.87;28.77;;;19.80;95.20;;;;;;5046190;28;20243;-70
2022/08/27 02:24:28;;;;;;;48.27;27.37;;;19.90;95.20;;;;;;5035393;28;20222;-72
2022/08/27 02:26:54;;;;;;;47.53;25.83;;;19.90;95.20;;;;;;5045540;28;20416;-68
2022/08/27 02:29:21;;;;;;;55.60;28.50;;;19.90;95.10;;;;;;5039236;28;20431;-68
2022/08/27 02:31:46;;;;;;;50.93;28.13;;;19.90;94.80;;;;;;5043548;28;21004;-69
2022/08/27 02:34:12;;;;;;;51.97;28.90;;;19.90;94.50;;;;;;5039048;28;20428;-69
2022/08/27 02:36:38;;;;;;;44.93;24.47;;;19.90;94.50;;;;;;5044349;28;20241;-74
2022/08/27 02:39:05;;;;;;;47.57;25.43;;;19.90;94.60;;;;;;5039029;28;20617;-72
2022/08/27 02:41:31;;;;;;;49.57;26.67;;;20.00;94.60;;;;;;5042559;28;20742;-69
2022/08/27 02:43:56;;;;;;;47.90;25.80;;;20.00;94.50;;;;;;5037558;28;20522;-69
2022/08/27 02:46:22;;;;;;;49.17;24.93;;;20.00;94.40;;;;;;5038922;28;20213;-69
2022/08/27 02:48:48;;;;;;;47.20;26.60;;;19.90;94.50;;;;;;5041212;28;20264;-68
2022/08/27 02:51:14;;;;;;;50.03;26.90;;;19.80;94.60;;;;;;5041359;28;20209;-69
2022/08/27 02:53:40;;;;;;;48.47;26.83;;;19.80;94.60;;;;;;5036089;28;20464;-73
2022/08/27 02:56:06;;;;;;;53.07;26.77;;;19.70;94.70;;;;;;5041394;28;20226;-69
2022/08/27 02:58:32;;;;;;;45.23;25.03;;;19.80;94.50;;;;;;5032343;28;20527;-69
2022/08/27 03:01:01;;;;;;;48.63;24.43;;;19.80;94.30;;;;;;5045294;28;20205;-67
2022/08/27 03:03:28;;;;;;;49.40;26.30;;;19.80;94.30;;;;;;5036603;28;20431;-67
2022/08/27 03:05:55;;;;;;;53.80;28.87;;;19.70;94.40;;;;;;5039438;28;20432;-68
2022/08/27 03:08:20;;;;;;;50.53;27.80;;;19.80;94.60;;;;;;5038092;28;20476;-70
2022/08/27 03:10:46;;;;;;;46.60;25.13;;;19.80;94.70;;;;;;5037190;28;20494;-71
2022/08/27 03:13:11;;;;;;;56.03;29.80;;;19.80;94.70;;;;;;5048088;28;20220;-69
2022/08/27 03:15:37;;;;;;;45.63;24.80;;;19.80;94.60;;;;;;5039418;28;20178;-69
2022/08/27 03:18:18;;;;;;;54.37;28.03;;;19.70;94.20;;;;;;5041298;28;20654;-71
2022/08/27 03:20:45;;;;;;;46.77;25.80;;;19.70;94.10;;;;;;5036542;28;20295;-69
2022/08/27 03:23:13;;;;;;;55.07;26.17;;;19.60;93.90;;;;;;5038966;28;20429;-70
2022/08/27 03:25:42;;;;;;;45.37;24.23;;;19.60;94.00;;;;;;5039345;28;20434;-72
2022/08/27 03:28:07;;;;;;;44.57;23.10;;;19.80;94.10;;;;;;5040472;28;20419;-71
2022/08/27 03:30:33;;;;;;;49.07;25.80;;;19.80;93.90;;;;;;5039193;28;20535;-70
2022/08/27 03:32:59;;;;;;;43.23;23.70;;;19.80;92.80;;;;;;5040327;28;20254;-70
2022/08/27 03:35:24;;;;;;;38.80;22.33;;;19.80;92.80;;;;;;5040223;28;20180;-68
2022/08/27 03:37:50;;;;;;;37.80;22.53;;;19.80;92.90;;;;;;5043064;28;20232;-71
2022/08/27 03:40:16;;;;;;;41.97;23.77;;;19.80;93.00;;;;;;5035021;28;20211;-71
2022/08/27 03:42:42;;;;;;;44.53;23.03;;;19.80;93.00;;;;;;5040392;28;20234;-68
2022/08/27 03:45:08;;;;;;;38.53;23.00;;;19.80;92.90;;;;;;5034213;28;20506;-71
2022/08/27 03:47:35;;;;;;;44.30;24.70;;;19.80;92.80;;;;;;5040929;28;20192;-69
2022/08/27 03:50:01;;;;;;;42.10;24.47;;;19.80;93.00;;;;;;5031497;28;20469;-68
2022/08/27 03:52:28;;;;;;;41.53;21.73;;;19.70;92.90;;;;;;5037981;28;20495;-70
2022/08/27 03:54:53;;;;;;;34.03;19.13;;;19.70;92.90;;;;;;5032755;28;20424;-68
2022/08/27 03:57:19;;;;;;;39.50;21.53;;;19.70;92.90;;;;;;5039688;28;20437;-71
2022/08/27 03:59:44;;;;;;;36.43;20.77;;;19.70;92.90;;;;;;5037205;28;20878;-70
2022/08/27 04:02:10;;;;;;;33.80;19.80;;;19.70;92.80;;;;;;5045430;28;20188;-67
2022/08/27 04:04:36;;;;;;;34.90;19.90;;;19.60;92.60;;;;;;5042281;28;20184;-70
2022/08/27 04:07:02;;;;;;;33.37;18.07;;;19.60;92.80;;;;;;5043062;28;20670;-68
2022/08/27 04:09:27;;;;;;;31.03;19.30;;;19.60;93.00;;;;;;5038475;28;20187;-70
2022/08/27 04:11:53;;;;;;;33.23;18.67;;;19.50;92.80;;;;;;5042619;28;20229;-69
2022/08/27 04:14:19;;;;;;;31.93;18.40;;;19.50;92.90;;;;;;5042536;28;20197;-72
2022/08/27 04:16:44;;;;;;;30.73;18.77;;;19.60;92.90;;;;;;5037726;28;20523;-68
2022/08/27 04:19:11;;;;;;;34.60;21.60;;;19.70;92.60;;;;;;5046845;28;20259;-68
2022/08/27 04:21:37;;;;;;;50.70;28.23;;;19.70;92.30;;;;;;5041751;28;20236;-71
2022/08/27 04:24:03;;;;;;;61.93;31.87;;;19.40;92.70;;;;;;5045802;28;20451;-71
2022/08/27 04:26:29;;;;;;;63.57;34.13;;;19.20;93.50;;;;;;5050269;28;20272;-69
2022/08/27 04:28:56;;;;;;;52.20;30.17;;;19.10;93.80;;;;;;5052439;28;20249;-70
2022/08/27 04:31:21;;;;;;;56.93;29.30;;;19.00;94.10;;;;;;5047904;28;20212;-72
2022/08/27 04:33:47;;;;;;;54.70;30.40;;;19.10;94.30;;;;;;5054291;28;20421;-68
2022/08/27 04:36:13;;;;;;;51.47;29.37;;;19.20;94.10;;;;;;5052494;28;20616;-69
2022/08/27 04:38:39;;;;;;;56.20;28.33;;;19.20;94.10;;;;;;5055993;28;20258;-69
2022/08/27 04:41:20;;;;;;;58.57;30.63;;;19.30;94.10;;;;;;5054601;28;20461;-70
2022/08/27 04:43:50;;;;;;;52.93;27.67;;;19.40;93.90;;;;;;5054401;28;20665;-68
2022/08/27 04:46:24;;;;;;;64.77;32.80;;;19.40;93.70;;;;;;5048565;28;20464;-69
2022/08/27 04:48:51;;;;;;;58.90;31.70;;;19.40;93.40;;;;;;5052069;28;20424;-69
2022/08/27 04:51:17;;;;;;;58.20;32.40;;;19.40;93.60;;;;;;5048710;28;20968;-68
2022/08/27 04:53:42;;;;;;;58.87;29.83;;;19.40;93.70;;;;;;5051563;28;20561;-68
2022/08/27 04:56:13;;;;;;;66.07;32.30;;;19.50;93.70;;;;;;5059124;28;20426;-71
2022/08/27 04:58:38;;;;;;;67.30;34.33;;;19.40;93.60;;;;;;5055254;28;20240;-71
2022/08/27 05:01:06;;;;;;;62.17;33.57;;;19.50;93.70;;;;;;5055867;28;20489;-71
2022/08/27 05:03:32;;;;;;;52.50;28.90;;;19.50;93.80;;;;;;5061616;28;20223;-71
2022/08/27 05:06:00;;;;;;;68.63;34.63;;;19.60;93.60;;;;;;5051682;28;20485;-69
2022/08/27 05:08:26;;;;;;;58.57;30.60;;;19.60;93.40;;;;;;5042615;28;20428;-72
2022/08/27 05:10:52;;;;;;;67.80;35.67;;;19.60;93.40;;;;;;5040058;28;20515;-71
2022/08/27 05:13:19;;;;;;;57.23;31.37;;;19.50;93.40;;;;;;5040329;28;20212;-72
2022/08/27 05:15:46;;;;;;;63.23;32.40;;;19.50;93.50;;;;;;5042502;28;20192;-70
2022/08/27 05:18:12;;;;;;;65.27;34.40;;;19.60;93.70;;;;;;5040381;28;20440;-71
2022/08/27 05:20:48;;;;;;;57.40;30.87;;;19.60;93.60;;;;;;5042938;28;21024;-71
2022/08/27 05:23:16;;;;;;;65.40;30.73;;;19.60;93.30;;;;;;5036335;28;20480;-71
2022/08/27 05:25:44;;;;;;;60.50;31.73;;;19.70;93.20;;;;;;5041016;28;20424;-71
2022/08/27 05:28:12;;;;;;;58.43;28.83;;;19.70;93.20;;;;;;5039680;28;20430;-71
2022/08/27 05:30:40;;;;;;;73.47;35.63;;;19.70;93.30;;;;;;5043094;28;20458;-71
2022/08/27 05:33:06;;;;;;;63.20;32.00;;;19.80;93.30;;;;;;5037276;28;20466;-71
2022/08/27 05:35:38;;;;;;;62.90;31.03;;;19.70;93.30;;;;;;5044266;28;20937;-70
2022/08/27 05:38:04;;;;;;;54.97;29.90;;;19.70;93.30;;;;;;5038344;28;20417;-71
2022/08/27 05:40:29;;;;;;;57.77;29.40;;;19.80;93.10;;;;;;5041423;28;20458;-72
2022/08/27 05:42:55;;;;;;;64.60;30.90;;;19.80;93.30;;;;;;5041731;28;20200;-72
2022/08/27 05:45:21;;;;;;;56.83;30.77;;;19.90;93.10;;;;;;5045029;28;20189;-72
2022/08/27 05:47:46;;;;;;;72.83;35.20;;;19.90;92.60;;;;;;5045139;28;20272;-71
2022/08/27 05:50:12;;;;;;;66.30;31.30;;;19.80;92.60;;;;;;5042111;28;20284;-72
2022/08/27 05:52:37;;;;;;;64.97;34.63;;;19.80;92.80;;;;;;5041503;28;20227;-72
2022/08/27 05:55:03;;;;;;;71.37;32.70;;;19.80;92.90;;;;;;5041335;28;20187;-71
2022/08/27 05:57:29;;;;;;;64.07;32.80;;;19.90;92.90;;;;;;5043896;28;20242;-71
2022/08/27 06:02:39;;;;;;;70.40;32.53;;;19.90;92.80;;;;;;5045751;28;20207;-71
2022/08/27 06:05:05;;;;;;;57.07;30.30;;;19.90;92.60;;;;;;5033621;28;20425;-71
2022/08/27 06:07:33;;;;;;;63.70;32.70;;;20.00;92.50;;;;;;5039749;28;20184;-71
2022/08/27 06:09:59;;;;;;;61.57;33.10;;;19.90;92.50;;;;;;5035376;28;20463;-71
2022/08/27 06:12:25;;;;;;;63.10;32.57;;;19.90;92.70;;;;;;5038285;28;20470;-72
2022/08/27 06:14:50;;;;;;;63.20;32.87;;;20.00;92.70;;;;;;5036198;28;20288;-71
2022/08/27 06:17:16;;;;;;;69.63;37.70;;;19.90;92.40;;;;;;5045455;28;20261;-71
2022/08/27 06:19:42;;;;;;;66.17;32.67;;;19.80;92.60;;;;;;5033438;28;20201;-70
2022/08/27 06:22:08;;;;;;;68.07;34.60;;;19.80;92.90;;;;;;5044376;28;20419;-72
2022/08/27 06:24:34;;;;;;;71.70;35.73;;;19.80;92.80;;;;;;5033876;28;20557;-73
2022/08/27 06:27:00;;;;;;;67.17;34.50;;;19.80;92.90;;;;;;5045941;28;20186;-72
2022/08/27 06:29:26;;;;;;;60.70;33.13;;;19.80;93.00;;;;;;5038663;28;20518;-71
2022/08/27 06:31:53;;;;;;;61.70;31.83;;;19.80;93.20;;;;;;5039672;28;20252;-71
2022/08/27 06:34:19;;;;;;;54.17;30.60;;;19.90;93.10;;;;;;5043750;28;20183;-71
2022/08/27 06:36:44;;;;;;;53.33;29.53;;;19.90;93.10;;;;;;5037794;28;20437;-70
2022/08/27 06:39:14;;;;;;;64.43;35.33;;;20.10;93.00;;;;;;5037691;28;20211;-71
2022/08/27 06:41:41;;;;;;;52.40;29.90;;;20.10;92.70;;;;;;5037607;28;20211;-71
2022/08/27 06:44:07;;;;;;;56.07;30.17;;;20.00;92.50;;;;;;5048427;28;20443;-71
2022/08/27 06:46:34;;;;;;;58.00;31.00;;;20.10;92.70;;;;;;5038535;28;20431;-71
2022/08/27 06:49:00;;;;;;;59.83;32.30;;;20.10;92.50;;;;;;5040739;28;20422;-73
2022/08/27 06:51:29;;;;;;;66.70;35.67;;;19.90;92.90;;;;;;5041644;28;20910;-73
2022/08/27 06:54:00;;;;;;;62.17;32.93;;;19.80;93.20;;;;;;5037074;28;20268;-70
2022/08/27 06:56:27;;;;;;;67.30;32.27;;;19.90;93.40;;;;;;5034977;28;20413;-72
2022/08/27 06:58:54;;;;;;;62.83;33.43;;;20.00;93.10;;;;;;5045753;28;20428;-72
2022/08/27 07:01:24;;;;;;;62.83;32.40;;;20.20;93.00;;;;;;5040451;28;20459;-70
2022/08/27 07:03:53;;;;;;;60.77;32.43;;;20.20;92.40;;;;;;5043567;28;20521;-71
2022/08/27 07:06:18;;;;;;;58.30;31.70;;;20.10;92.40;;;;;;5033284;28;20423;-71
2022/08/27 07:08:45;;;;;;;68.67;33.90;;;19.90;93.00;;;;;;5043909;28;20424;-70
2022/08/27 07:11:12;;;;;;;85.00;34.80;;;19.80;93.50;;;;;;5039687;28;20204;-70
2022/08/27 07:13:40;;;;;;;57.60;31.13;;;19.90;93.40;;;;;;5044013;28;20499;-72
2022/08/27 07:16:09;;;;;;;68.53;34.00;;;20.00;93.40;;;;;;5039476;28;20496;-69
2022/08/27 07:18:35;;;;;;;58.70;30.93;;;20.20;92.90;;;;;;5040552;28;20557;-70
2022/08/27 07:21:02;;;;;;;60.97;32.50;;;20.40;92.80;;;;;;5035432;28;20550;-71
2022/08/27 07:23:29;;;;;;;60.90;31.00;;;20.40;91.80;;;;;;5040454;28;20527;-69
2022/08/27 07:25:55;;;;;;;56.00;32.27;;;20.40;92.00;;;;;;5037146;28;20450;-69
2022/08/27 07:28:20;;;;;;;58.13;31.43;;;20.30;92.00;;;;;;5038786;28;20427;-71
2022/08/27 07:30:46;;;;;;;58.37;29.70;;;20.30;92.20;;;;;;5037146;28;20470;-68
2022/08/27 07:33:11;;;;;;;56.00;29.93;;;20.40;92.20;;;;;;5043028;28;20691;-69
2022/08/27 07:35:38;;;;;;;53.63;30.47;;;20.30;92.00;;;;;;5043578;28;20181;-71
2022/08/27 07:38:03;;;;;;;67.50;32.60;;;20.40;92.10;;;;;;5045071;28;20256;-72
2022/08/27 07:40:29;;;;;;;60.70;29.90;;;20.30;92.10;;;;;;5040799;28;20531;-70
2022/08/27 07:45:47;;;;;;;62.50;32.30;;;20.20;92.30;;;;;;5041004;28;20223;-70
2022/08/27 07:48:15;;;;;;;58.60;30.47;;;20.20;92.70;;;;;;5042048;28;20424;-69
2022/08/27 07:50:41;;;;;;;63.00;32.53;;;20.20;92.80;;;;;;5044606;28;20452;-71
2022/08/27 07:53:07;;;;;;;60.07;32.40;;;20.40;92.80;;;;;;5036875;28;20464;-67
2022/08/27 07:55:36;;;;;;;63.10;33.10;;;20.40;92.30;;;;;;5040642;28;20469;-71
2022/08/27 07:58:02;;;;;;;65.03;32.50;;;20.40;92.10;;;;;;5036278;28;20420;-70
2022/08/27 08:00:27;;;;;;;66.77;34.73;;;20.30;92.60;;;;;;5035540;28;20469;-69
2022/08/27 08:02:53;;;;;;;68.23;34.90;;;20.10;93.10;;;;;;5040598;28;20428;-70
2022/08/27 08:05:19;;;;;;;69.90;33.90;;;20.10;93.80;;;;;;5039865;28;20650;-70
2022/08/27 08:07:45;;;;;;;63.37;31.93;;;20.10;94.00;;;;;;5033540;28;20185;-70
2022/08/27 08:10:11;;;;;;;63.87;33.67;;;20.00;94.00;;;;;;5040848;28;20745;-68
2022/08/27 08:12:37;;;;;;;69.03;35.50;;;19.90;94.50;;;;;;5048374;28;20554;-69
2022/08/27 08:15:05;;;;;;;62.53;33.13;;;20.00;94.50;;;;;;5044397;28;20711;-72
2022/08/27 08:17:33;;;;;;;62.67;34.87;;;20.10;94.60;;;;;;5036836;28;20419;-70
2022/08/27 08:19:59;;;;;;;67.93;32.37;;;20.10;94.10;;;;;;5042568;28;20513;-71
2022/08/27 08:22:26;;;;;;;65.03;35.10;;;20.00;94.30;;;;;;5046198;28;20523;-70
2022/08/27 08:24:52;;;;;;;65.07;35.33;;;20.20;94.60;;;;;;5041997;28;20488;-70
2022/08/27 08:27:19;;;;;;;67.10;34.83;;;20.20;94.50;;;;;;5040054;28;20468;-69
2022/08/27 08:29:46;;;;;;;64.53;34.33;;;20.00;94.30;;;;;;5049488;28;20431;-70
2022/08/27 08:32:11;;;;;;;68.27;35.77;;;20.10;94.70;;;;;;5042606;28;20624;-70
2022/08/27 08:34:37;;;;;;;71.07;34.93;;;20.00;94.70;;;;;;5037735;28;20998;-70
2022/08/27 08:37:03;;;;;;;71.53;35.43;;;19.90;94.90;;;;;;5037023;28;20181;-70
2022/08/27 08:39:29;;;;;;;71.50;35.13;;;19.90;95.10;;;;;;5039047;28;20182;-70
2022/08/27 08:42:01;;;;;;;70.90;37.40;;;19.90;95.30;;;;;;5037852;28;20435;-70
2022/08/27 08:44:33;;;;;;;73.47;37.40;;;19.80;95.00;;;;;;5036456;28;20224;-68
2022/08/27 08:47:02;;;;;;;72.20;37.00;;;19.80;95.10;;;;;;5040898;28;20450;-69
2022/08/27 08:49:30;;;;;;;67.90;37.00;;;19.90;95.40;;;;;;5031840;28;20416;-69
2022/08/27 08:52:07;;;;;;;65.03;34.30;;;20.00;95.50;;;;;;5039399;28;20543;-73
2022/08/27 08:54:33;;;;;;;73.30;38.13;;;20.10;95.20;;;;;;5030694;28;20451;-71
2022/08/27 08:57:47;;;;;;;75.27;37.80;;;20.10;94.80;;;;;;5041956;28;20427;-71
2022/08/27 09:00:13;;;;;;;73.73;37.20;;;20.00;94.60;;;;;;5018640;28;20518;-69
2022/08/27 09:02:43;;;;;;;66.77;35.17;;;20.00;95.20;;;;;;5020196;28;20435;-72
2022/08/27 09:05:10;;;;;;;79.23;39.17;;;20.00;95.10;;;;;;5016004;28;20424;-69
2022/08/27 09:07:49;;;;;;;81.10;38.03;;;20.00;95.00;;;;;;5018309;28;20467;-71
2022/08/27 09:10:31;;;;;;;74.17;38.03;;;20.10;95.50;;;;;;5017990;28;20513;-69
2022/08/27 09:13:00;;;;;;;72.53;36.80;;;20.00;95.20;;;;;;5022334;28;20470;-69
2022/08/27 09:15:30;;;;;;;64.80;32.50;;;19.90;95.40;;;;;;5023236;28;20517;-69
2022/08/27 09:18:11;;;;;;;70.70;37.33;;;19.90;95.50;;;;;;5018263;28;20563;-72
2022/08/27 09:20:37;;;;;;;70.30;36.70;;;19.90;95.70;;;;;;5019856;28;20530;-69
2022/08/27 09:23:19;;;;;;;69.63;35.10;;;19.90;95.80;;;;;;5017312;28;20848;-69
2022/08/27 09:25:46;;;;;;;43.30;23.30;;;20.10;96.00;;;;;;5021315;28;20420;-68
2022/08/27 09:31:11;;;;;;;34.30;19.53;;;19.80;95.90;;;;;;5022593;28;20297;-72
2022/08/27 09:33:36;;;;;;;41.37;21.70;;;19.80;96.30;;;;;;5032718;28;20505;-69
2022/08/27 09:36:07;;;;;;;36.27;20.53;;;19.70;96.80;;;;;;5042162;28;20427;-69
2022/08/27 09:38:34;;;;;;;38.40;21.20;;;19.70;97.10;;;;;;5039334;28;20196;-68
2022/08/27 09:41:04;;;;;;;39.77;22.97;;;19.60;97.00;;;;;;5036860;28;20455;-69
2022/08/27 09:43:30;;;;;;;39.70;21.10;;;19.80;97.30;;;;;;5047261;28;20439;-69
2022/08/27 09:46:04;;;;;;;36.83;21.10;;;19.90;97.10;;;;;;5043822;28;20795;-70
2022/08/27 09:48:34;;;;;;;34.47;19.20;;;19.80;96.80;;;;;;5044937;28;20763;-72
2022/08/27 09:51:08;;;;;;;34.60;19.80;;;19.90;97.00;;;;;;5036253;28;20812;-67
2022/08/27 09:53:46;;;;;;;32.90;18.93;;;20.00;96.70;;;;;;5045052;28;20458;-69
2022/08/27 09:56:32;;;;;;;32.07;19.70;;;20.10;96.40;;;;;;5034656;28;20427;-68
2022/08/27 09:59:04;;;;;;;36.07;20.67;;;20.20;96.20;;;;;;5043484;28;20426;-69
2022/08/27 10:01:37;;;;;;;31.90;19.30;;;20.10;95.70;;;;;;5042756;28;20455;-68
2022/08/27 10:04:09;;;;;;;34.73;20.03;;;20.00;95.70;;;;;;5038477;28;20469;-69
2022/08/27 10:06:36;;;;;;;24.67;16.27;;;20.10;95.80;;;;;;5039997;28;20422;-68
2022/08/27 10:09:30;;;;;;;32.07;18.67;;;20.30;96.10;;;;;;5036746;28;20420;-69
2022/08/27 10:12:13;;;;;;;29.13;18.20;;;20.40;95.60;;;;;;5038704;28;20463;-73
2022/08/27 10:14:45;;;;;;;27.00;17.40;;;20.40;94.70;;;;;;5038861;28;20458;-71
2022/08/27 10:17:29;;;;;;;29.80;16.40;;;20.40;94.90;;;;;;5040174;28;20420;-72
2022/08/27 10:20:10;;;;;;;28.80;17.40;;;20.20;94.30;;;;;;5034163;28;20510;-73
2022/08/27 10:22:51;;;;;;;25.27;15.67;;;20.30;94.60;;;;;;5038054;28;20465;-73
2022/08/27 10:25:41;;;;;;;29.23;17.80;;;20.60;94.80;;;;;;5041293;28;20425;-74
2022/08/27 10:28:37;;;;;;;26.83;16.63;;;20.60;94.00;;;;;;5041879;28;20442;-73
2022/08/27 10:31:34;;;;;;;25.00;15.90;;;20.70;93.80;;;;;;5032416;28;21186;-73
2022/08/27 10:34:24;;;;;;;29.93;18.63;;;20.80;93.80;;;;;;5041334;28;20431;-73
2022/08/27 10:36:52;;;;;;;30.00;17.90;;;20.80;93.20;;;;;;5035972;28;20520;-73
2022/08/27 10:39:37;;;;;;;33.60;18.50;;;20.90;93.40;;;;;;5042391;28;20427;-75
2022/08/27 10:42:14;;;;;;;35.60;21.87;;;21.00;93.30;;;;;;5034412;28;20423;-74
2022/08/27 10:44:39;;;;;;;36.57;22.07;;;20.90;93.10;;;;;;5041135;28;20407;-72
2022/08/27 10:47:30;;;;;;;37.53;21.03;;;20.80;93.30;;;;;;5043344;28;20913;-74
2022/08/27 10:49:58;;;;;;;32.70;20.10;;;20.80;93.40;;;;;;5040156;28;20223;-74
2022/08/27 10:52:54;;;;;;;35.20;21.63;;;21.00;93.80;;;;;;5038435;28;20474;-73
2022/08/27 10:56:01;;;;;;;33.83;20.83;;;21.30;93.50;;;;;;5028038;28;20431;-73
2022/08/27 10:59:01;;;;;;;35.60;19.17;;;21.10;92.70;;;;;;5008514;28;20937;-73
2022/08/27 11:01:47;;;;;;;36.00;20.27;;;21.40;92.60;;;;;;5003170;28;20491;-73
2022/08/27 11:04:29;;;;;;;36.60;20.90;;;21.60;91.90;;;;;;4993707;28;20425;-73
2022/08/27 11:06:59;;;;;;;38.23;22.03;;;21.70;91.20;;;;;;4995096;28;20429;-72
2022/08/27 11:09:45;;;;;;;40.20;22.97;;;21.30;91.40;;;;;;4995336;28;20431;-73
2022/08/27 11:12:17;;;;;;;38.73;23.03;;;21.10;91.90;;;;;;5001581;28;20471;-75
2022/08/27 11:15:10;;;;;;;44.40;25.20;;;21.00;92.70;;;;;;4982085;28;20433;-72
2022/08/27 11:17:44;;;;;;;40.17;22.07;;;21.10;93.00;;;;;;4999366;28;20457;-73
2022/08/27 11:20:19;;;;;;;38.53;23.53;;;21.10;93.00;;;;;;4995791;28;20889;-73
2022/08/27 11:23:17;;;;;;;40.20;22.67;;;21.00;92.80;;;;;;5001325;28;20476;-73
2022/08/27 11:25:55;;;;;;;42.73;23.97;;;21.10;93.10;;;;;;4979715;28;20433;-72
2022/08/27 11:28:36;;;;;;;39.90;24.57;;;21.00;92.80;;;;;;4999751;28;20609;-72
2022/08/27 11:31:39;;;;;;;40.10;22.50;;;20.90;93.20;;;;;;4982630;28;20464;-73
2022/08/27 11:34:34;;;;;;;42.03;24.60;;;20.70;93.00;;;;;;5020166;28;20427;-71
2022/08/27 11:37:26;;;;;;;45.97;24.97;;;20.70;93.40;;;;;;5035400;28;20906;-72
2022/08/27 11:40:22;;;;;;;44.07;25.83;;;20.70;93.80;;;;;;5039903;28;20441;-72
2022/08/27 11:42:52;;;;;;;42.33;25.47;;;20.50;93.60;;;;;;5037498;28;20434;-72
2022/08/27 11:45:29;;;;;;;61.57;34.40;;;20.40;93.40;;;;;;5038919;28;20501;-73
2022/08/27 11:48:01;;;;;;;73.97;39.80;;;20.40;93.60;;;;;;5040062;28;20414;-72
2022/08/27 11:50:29;;;;;;;34.37;21.90;;;20.60;94.10;;;;;;5034029;28;20464;-72
2022/08/27 11:53:04;;;;;;;47.27;26.50;;;20.80;94.20;;;;;;5035631;28;20469;-72
2022/08/27 11:55:35;;;;;;;37.40;21.20;;;21.00;93.70;;;;;;5031666;28;20416;-73
2022/08/27 11:58:17;;;;;;;37.53;22.70;;;21.20;93.60;;;;;;5038759;28;20418;-72
2022/08/27 12:00:44;;;;;;;36.60;23.00;;;21.50;93.20;;;;;;5036565;28;20606;-72
2022/08/27 12:03:25;;;;;;;43.77;23.93;;;21.60;92.70;;;;;;5036897;28;20517;-72
2022/08/27 12:05:54;;;;;;;40.13;23.47;;;21.70;92.40;;;;;;5037933;28;20788;-72
2022/08/27 12:08:22;;;;;;;38.90;22.57;;;21.80;92.20;;;;;;5035447;28;20445;-72
2022/08/27 12:11:15;;;;;;;34.87;21.07;;;21.80;92.10;;;;;;5027541;28;20561;-72
2022/08/27 12:14:03;;;;;;;35.20;22.03;;;21.90;92.00;;;;;;5031724;28;20490;-72
2022/08/27 12:16:40;;;;;;;40.00;24.83;;;22.00;91.70;;;;;;5036843;28;21049;-72
2022/08/27 12:19:24;;;;;;;41.50;25.33;;;22.10;91.00;;;;;;5028324;28;21111;-72
2022/08/27 12:22:14;;;;;;;33.50;18.90;;;21.90;90.50;;;;;;5037818;28;20458;-73
2022/08/27 12:24:59;;;;;;;35.90;22.93;;;22.10;90.70;;;;;;5033961;28;21306;-73
2022/08/27 12:27:27;;;;;;;37.97;23.27;;;22.20;90.50;;;;;;5033040;28;21194;-72
2022/08/27 12:30:16;;;;;;;34.00;20.90;;;22.20;90.50;;;;;;5038640;28;20950;-72
2022/08/27 12:32:45;;;;;;;35.67;19.60;;;22.20;90.20;;;;;;5035761;28;21334;-70
2022/08/27 12:35:15;;;;;;;42.93;24.47;;;22.40;90.20;;;;;;5039732;28;20500;-71
2022/08/27 12:38:01;;;;;;;146.80;77.20;;;22.40;89.90;;;;;;5029139;28;20940;-77
2022/08/27 12:40:36;;;;;;;76.77;43.40;;;22.40;89.90;;;;;;5032057;28;20463;-74
2022/08/27 12:43:21;;;;;;;42.77;23.77;;;22.50;90.00;;;;;;5035823;28;20429;-74
2022/08/27 12:46:03;;;;;;;46.57;25.60;;;22.50;90.00;;;;;;5036620;28;20434;-74
2022/08/27 12:48:55;;;;;;;48.37;28.73;;;22.50;89.60;;;;;;5044427;28;20466;-71
2022/08/27 12:51:32;;;;;;;46.67;24.97;;;22.40;89.30;;;;;;5035879;28;20470;-72